sensor_id;sensor_type;location;lat;lon;timestamp;temperature;humidity
42615;DHT22;28754;47.700;7.924;2023-05-07T00:02:27;14.40;99.90
42615;DHT22;28754;47.700;7.924;2023-05-07T00:05:14;14.30;99.90
42615;DHT22;28754;47.700;7.924;2023-05-07T00:08:01;14.40;99.90
42615;DHT22;28754;47.700;7.924;2023-05-07T00:10:47;14.40;99.90
42615;DHT22;28754;47.700;7.924;2023-05-07T00:13:34;14.30;99.90
42615;DHT22;28754;47.700;7.924;2023-05-07T00:16:21;14.40;99.90
42615;DHT22;28754;47.700;7.924;2023-05-07T00:19:08;14.30;99.90
42615;DHT22;28754;47.700;7.924;2023-05-07T00:21:55;14.40;99.90
42615;DHT22;28754;47.700;7.924;2023-05-07T00:24:43;14.40;99.90
42615;DHT22;28754;47.700;7.924;2023-05-07T00:27:29;14.40;99.90
42615;DHT22;28754;47.700;7.924;2023-05-07T00:30:16;14.40;99.90
42615;DHT22;28754;47.700;7.924;2023-05-07T00:33:04;14.40;99.90
42615;DHT22;28754;47.700;7.924;2023-05-07T00:35:50;14.40;99.90
42615;DHT22;28754;47.700;7.924;2023-05-07T00:38:37;14.50;99.90
42615;DHT22;28754;47.700;7.924;2023-05-07T00:41:24;14.50;99.90
42615;DHT22;28754;47.700;7.924;2023-05-07T00:44:13;14.50;99.90
42615;DHT22;28754;47.700;7.924;2023-05-07T00:47:02;14.50;99.90
42615;DHT22;28754;47.700;7.924;2023-05-07T00:49:51;14.60;99.90
42615;DHT22;28754;47.700;7.924;2023-05-07T00:52:38;14.50;99.90
42615;DHT22;28754;47.700;7.924;2023-05-07T00:55:25;14.50;99.90
42615;DHT22;28754;47.700;7.924;2023-05-07T00:58:13;14.50;99.90
42615;DHT22;28754;47.700;7.924;2023-05-07T01:00:59;14.50;99.90
42615;DHT22;28754;47.700;7.924;2023-05-07T01:04:15;14.50;99.90
42615;DHT22;28754;47.700;7.924;2023-05-07T01:11:32;14.40;99.90
42615;DHT22;28754;47.700;7.924;2023-05-07T01:14:19;14.40;99.90
42615;DHT22;28754;47.700;7.924;2023-05-07T01:17:07;14.30;99.90
42615;DHT22;28754;47.700;7.924;2023-05-07T01:19:55;14.30;99.90
42615;DHT22;28754;47.700;7.924;2023-05-07T01:22:43;14.30;99.90
42615;DHT22;28754;47.700;7.924;2023-05-07T01:25:31;14.30;99.90
42615;DHT22;28754;47.700;7.924;2023-05-07T01:28:20;14.20;99.90
42615;DHT22;28754;47.700;7.924;2023-05-07T01:31:08;14.20;99.90
42615;DHT22;28754;47.700;7.924;2023-05-07T01:33:57;14.20;99.90
42615;DHT22;28754;47.700;7.924;2023-05-07T01:36:46;14.20;99.90
42615;DHT22;28754;47.700;7.924;2023-05-07T01:39:38;14.10;99.90
42615;DHT22;28754;47.700;7.924;2023-05-07T01:42:26;14.10;99.90
42615;DHT22;28754;47.700;7.924;2023-05-07T01:45:12;14.00;99.90
42615;DHT22;28754;47.700;7.924;2023-05-07T01:48:00;13.90;99.90
42615;DHT22;28754;47.700;7.924;2023-05-07T01:50:48;13.80;99.90
42615;DHT22;28754;47.700;7.924;2023-05-07T01:53:36;13.80;99.90
42615;DHT22;28754;47.700;7.924;2023-05-07T01:56:24;13.70;99.90
42615;DHT22;28754;47.700;7.924;2023-05-07T01:59:11;13.60;99.90
42615;DHT22;28754;47.700;7.924;2023-05-07T02:01:59;13.60;99.90
42615;DHT22;28754;47.700;7.924;2023-05-07T02:04:47;13.50;99.90
42615;DHT22;28754;47.700;7.924;2023-05-07T02:07:35;13.50;99.90
42615;DHT22;28754;47.700;7.924;2023-05-07T02:10:22;13.50;99.90
42615;DHT22;28754;47.700;7.924;2023-05-07T02:13:09;13.50;99.90
42615;DHT22;28754;47.700;7.924;2023-05-07T02:15:56;13.50;99.90
42615;DHT22;28754;47.700;7.924;2023-05-07T02:18:44;13.50;99.90
42615;DHT22;28754;47.700;7.924;2023-05-07T02:21:31;13.50;99.90
42615;DHT22;28754;47.700;7.924;2023-05-07T02:24:17;13.50;99.90
42615;DHT22;28754;47.700;7.924;2023-05-07T02:27:04;13.50;99.90
42615;DHT22;28754;47.700;7.924;2023-05-07T02:29:51;13.50;99.90
42615;DHT22;28754;47.700;7.924;2023-05-07T02:32:38;13.60;99.90
42615;DHT22;28754;47.700;7.924;2023-05-07T02:35:25;13.60;99.90
42615;DHT22;28754;47.700;7.924;2023-05-07T02:38:13;13.60;99.90
42615;DHT22;28754;47.700;7.924;2023-05-07T02:41:00;13.60;99.90
42615;DHT22;28754;47.700;7.924;2023-05-07T02:43:47;13.70;99.90
42615;DHT22;28754;47.700;7.924;2023-05-07T02:46:34;13.70;99.90
42615;DHT22;28754;47.700;7.924;2023-05-07T02:49:26;13.70;99.90
42615;DHT22;28754;47.700;7.924;2023-05-07T02:52:12;13.70;99.90
42615;DHT22;28754;47.700;7.924;2023-05-07T02:54:59;13.70;99.90
42615;DHT22;28754;47.700;7.924;2023-05-07T02:57:46;13.70;99.90
42615;DHT22;28754;47.700;7.924;2023-05-07T03:00:33;13.60;99.90
42615;DHT22;28754;47.700;7.924;2023-05-07T03:03:38;13.70;99.90
42615;DHT22;28754;47.700;7.924;2023-05-07T03:06:26;13.70;99.90
42615;DHT22;28754;47.700;7.924;2023-05-07T03:09:13;13.60;99.90
42615;DHT22;28754;47.700;7.924;2023-05-07T03:12:00;13.60;99.90
42615;DHT22;28754;47.700;7.924;2023-05-07T03:14:48;13.60;99.90
42615;DHT22;28754;47.700;7.924;2023-05-07T03:17:35;13.60;99.90
42615;DHT22;28754;47.700;7.924;2023-05-07T03:20:22;13.60;99.90
42615;DHT22;28754;47.700;7.924;2023-05-07T03:23:09;13.60;99.90
42615;DHT22;28754;47.700;7.924;2023-05-07T03:25:56;13.60;99.90
42615;DHT22;28754;47.700;7.924;2023-05-07T03:28:43;13.60;99.90
42615;DHT22;28754;47.700;7.924;2023-05-07T03:31:33;13.60;99.90
42615;DHT22;28754;47.700;7.924;2023-05-07T03:34:21;13.70;99.90
42615;DHT22;28754;47.700;7.924;2023-05-07T03:37:08;13.80;99.90
42615;DHT22;28754;47.700;7.924;2023-05-07T03:39:56;13.80;99.90
42615;DHT22;28754;47.700;7.924;2023-05-07T03:42:42;13.80;99.90
42615;DHT22;28754;47.700;7.924;2023-05-07T03:45:32;13.80;99.90
42615;DHT22;28754;47.700;7.924;2023-05-07T03:48:39;13.80;99.90
42615;DHT22;28754;47.700;7.924;2023-05-07T03:51:27;13.70;99.90
42615;DHT22;28754;47.700;7.924;2023-05-07T03:54:14;13.70;99.90
42615;DHT22;28754;47.700;7.924;2023-05-07T03:57:04;13.80;99.90
42615;DHT22;28754;47.700;7.924;2023-05-07T03:59:51;13.80;99.90
42615;DHT22;28754;47.700;7.924;2023-05-07T04:02:38;13.70;99.90
42615;DHT22;28754;47.700;7.924;2023-05-07T04:05:25;13.70;99.90
42615;DHT22;28754;47.700;7.924;2023-05-07T04:08:17;13.70;99.90
42615;DHT22;28754;47.700;7.924;2023-05-07T04:11:10;13.70;99.90
42615;DHT22;28754;47.700;7.924;2023-05-07T04:14:00;13.70;99.90
42615;DHT22;28754;47.700;7.924;2023-05-07T04:16:47;13.70;99.90
42615;DHT22;28754;47.700;7.924;2023-05-07T04:19:34;13.70;99.90
42615;DHT22;28754;47.700;7.924;2023-05-07T04:28:15;13.90;99.90
42615;DHT22;28754;47.700;7.924;2023-05-07T04:31:03;14.00;99.90
42615;DHT22;28754;47.700;7.924;2023-05-07T04:33:55;13.90;99.90
42615;DHT22;28754;47.700;7.924;2023-05-07T04:36:43;13.90;99.90
42615;DHT22;28754;47.700;7.924;2023-05-07T04:39:32;14.00;99.90
42615;DHT22;28754;47.700;7.924;2023-05-07T04:42:22;14.00;99.90
42615;DHT22;28754;47.700;7.924;2023-05-07T04:45:10;14.00;99.90
42615;DHT22;28754;47.700;7.924;2023-05-07T04:48:01;14.10;99.90
42615;DHT22;28754;47.700;7.924;2023-05-07T04:50:52;14.20;99.90
42615;DHT22;28754;47.700;7.924;2023-05-07T04:53:40;14.30;99.90
42615;DHT22;28754;47.700;7.924;2023-05-07T04:56:28;14.30;99.90
42615;DHT22;28754;47.700;7.924;2023-05-07T04:59:17;14.40;99.90
42615;DHT22;28754;47.700;7.924;2023-05-07T05:02:03;14.50;99.90
42615;DHT22;28754;47.700;7.924;2023-05-07T05:04:51;14.50;99.90
42615;DHT22;28754;47.700;7.924;2023-05-07T05:07:38;14.50;99.90
42615;DHT22;28754;47.700;7.924;2023-05-07T05:10:26;14.60;99.90
42615;DHT22;28754;47.700;7.924;2023-05-07T05:13:12;14.70;99.90
42615;DHT22;28754;47.700;7.924;2023-05-07T05:15:59;14.90;99.90
42615;DHT22;28754;47.700;7.924;2023-05-07T05:18:49;15.00;99.90
42615;DHT22;28754;47.700;7.924;2023-05-07T05:21:39;15.10;99.90
42615;DHT22;28754;47.700;7.924;2023-05-07T05:24:29;15.20;99.90
42615;DHT22;28754;47.700;7.924;2023-05-07T05:27:16;15.20;99.90
42615;DHT22;28754;47.700;7.924;2023-05-07T05:30:03;15.20;99.90
42615;DHT22;28754;47.700;7.924;2023-05-07T05:32:52;15.30;99.90
42615;DHT22;28754;47.700;7.924;2023-05-07T05:35:40;15.50;99.90
42615;DHT22;28754;47.700;7.924;2023-05-07T05:38:31;15.60;99.90
42615;DHT22;28754;47.700;7.924;2023-05-07T05:41:18;15.90;99.90
42615;DHT22;28754;47.700;7.924;2023-05-07T05:44:04;15.90;99.90
42615;DHT22;28754;47.700;7.924;2023-05-07T05:46:51;15.80;99.90
42615;DHT22;28754;47.700;7.924;2023-05-07T05:49:38;15.90;99.90
42615;DHT22;28754;47.700;7.924;2023-05-07T05:52:26;16.00;99.90
42615;DHT22;28754;47.700;7.924;2023-05-07T05:55:15;16.10;99.90
42615;DHT22;28754;47.700;7.924;2023-05-07T05:58:02;16.10;99.90
42615;DHT22;28754;47.700;7.924;2023-05-07T06:00:51;16.30;99.90
42615;DHT22;28754;47.700;7.924;2023-05-07T06:03:39;16.40;99.90
42615;DHT22;28754;47.700;7.924;2023-05-07T06:06:32;15.80;99.90
42615;DHT22;28754;47.700;7.924;2023-05-07T06:09:19;15.80;99.90
42615;DHT22;28754;47.700;7.924;2023-05-07T06:12:06;15.90;99.90
42615;DHT22;28754;47.700;7.924;2023-05-07T06:14:53;15.70;99.90
42615;DHT22;28754;47.700;7.924;2023-05-07T06:17:40;15.60;99.90
42615;DHT22;28754;47.700;7.924;2023-05-07T06:20:28;15.70;99.90
42615;DHT22;28754;47.700;7.924;2023-05-07T06:23:16;15.80;99.90
42615;DHT22;28754;47.700;7.924;2023-05-07T06:26:03;16.00;99.90
42615;DHT22;28754;47.700;7.924;2023-05-07T06:28:55;16.10;99.90
42615;DHT22;28754;47.700;7.924;2023-05-07T06:31:43;16.20;99.90
42615;DHT22;28754;47.700;7.924;2023-05-07T06:34:31;16.30;99.90
42615;DHT22;28754;47.700;7.924;2023-05-07T06:37:17;16.00;99.90
42615;DHT22;28754;47.700;7.924;2023-05-07T06:40:14;16.00;99.90
42615;DHT22;28754;47.700;7.924;2023-05-07T06:43:02;15.80;99.90
42615;DHT22;28754;47.700;7.924;2023-05-07T06:45:58;15.50;99.90
42615;DHT22;28754;47.700;7.924;2023-05-07T06:48:45;15.40;99.90
42615;DHT22;28754;47.700;7.924;2023-05-07T06:51:32;15.60;99.90
42615;DHT22;28754;47.700;7.924;2023-05-07T06:54:23;15.60;99.90
42615;DHT22;28754;47.700;7.924;2023-05-07T06:57:09;15.70;99.90
42615;DHT22;28754;47.700;7.924;2023-05-07T06:59:56;15.60;99.90
42615;DHT22;28754;47.700;7.924;2023-05-07T07:02:43;15.60;99.90
42615;DHT22;28754;47.700;7.924;2023-05-07T07:05:31;15.90;99.90
42615;DHT22;28754;47.700;7.924;2023-05-07T07:08:19;16.20;99.90
42615;DHT22;28754;47.700;7.924;2023-05-07T07:11:08;16.60;99.90
42615;DHT22;28754;47.700;7.924;2023-05-07T07:13:55;17.00;99.90
42615;DHT22;28754;47.700;7.924;2023-05-07T07:16:42;17.10;99.90
42615;DHT22;28754;47.700;7.924;2023-05-07T07:19:29;16.80;99.90
42615;DHT22;28754;47.700;7.924;2023-05-07T07:22:16;16.70;99.90
42615;DHT22;28754;47.700;7.924;2023-05-07T07:25:03;16.60;99.90
42615;DHT22;28754;47.700;7.924;2023-05-07T07:27:51;17.10;99.90
42615;DHT22;28754;47.700;7.924;2023-05-07T07:30:38;16.80;99.90
42615;DHT22;28754;47.700;7.924;2023-05-07T07:33:25;16.80;99.90
42615;DHT22;28754;47.700;7.924;2023-05-07T07:36:13;16.90;99.90
42615;DHT22;28754;47.700;7.924;2023-05-07T07:39:12;16.60;99.90
42615;DHT22;28754;47.700;7.924;2023-05-07T07:42:15;16.70;99.90
42615;DHT22;28754;47.700;7.924;2023-05-07T07:45:05;16.80;99.90
42615;DHT22;28754;47.700;7.924;2023-05-07T07:47:56;17.10;99.90
42615;DHT22;28754;47.700;7.924;2023-05-07T07:50:43;16.50;99.90
42615;DHT22;28754;47.700;7.924;2023-05-07T07:53:40;16.60;99.90
42615;DHT22;28754;47.700;7.924;2023-05-07T07:56:38;16.80;99.90
42615;DHT22;28754;47.700;7.924;2023-05-07T07:59:26;17.00;99.90
42615;DHT22;28754;47.700;7.924;2023-05-07T08:02:25;17.20;99.90
42615;DHT22;28754;47.700;7.924;2023-05-07T08:05:32;17.10;99.90
42615;DHT22;28754;47.700;7.924;2023-05-07T08:08:24;17.00;99.90
42615;DHT22;28754;47.700;7.924;2023-05-07T08:11:20;17.10;99.90
42615;DHT22;28754;47.700;7.924;2023-05-07T08:14:23;17.20;99.90
42615;DHT22;28754;47.700;7.924;2023-05-07T08:17:20;17.30;99.90
42615;DHT22;28754;47.700;7.924;2023-05-07T08:20:11;17.50;99.90
42615;DHT22;28754;47.700;7.924;2023-05-07T08:22:58;17.40;99.90
42615;DHT22;28754;47.700;7.924;2023-05-07T08:25:47;17.80;99.90
42615;DHT22;28754;47.700;7.924;2023-05-07T08:28:35;18.10;99.90
42615;DHT22;28754;47.700;7.924;2023-05-07T08:31:22;17.70;99.90
42615;DHT22;28754;47.700;7.924;2023-05-07T08:34:08;17.60;99.90
42615;DHT22;28754;47.700;7.924;2023-05-07T08:36:58;17.60;99.90
42615;DHT22;28754;47.700;7.924;2023-05-07T08:39:45;17.80;99.90
42615;DHT22;28754;47.700;7.924;2023-05-07T08:42:40;18.00;99.90
42615;DHT22;28754;47.700;7.924;2023-05-07T08:45:30;18.90;99.90
42615;DHT22;28754;47.700;7.924;2023-05-07T08:48:22;18.80;99.90
42615;DHT22;28754;47.700;7.924;2023-05-07T08:51:20;18.50;99.90
42615;DHT22;28754;47.700;7.924;2023-05-07T08:54:09;19.10;99.90
42615;DHT22;28754;47.700;7.924;2023-05-07T08:56:57;18.90;99.90
42615;DHT22;28754;47.700;7.924;2023-05-07T08:59:45;19.30;99.90
42615;DHT22;28754;47.700;7.924;2023-05-07T09:02:31;19.10;99.90
42615;DHT22;28754;47.700;7.924;2023-05-07T09:05:19;19.80;99.90
42615;DHT22;28754;47.700;7.924;2023-05-07T09:08:07;20.40;99.90
42615;DHT22;28754;47.700;7.924;2023-05-07T09:10:55;20.90;99.90
42615;DHT22;28754;47.700;7.924;2023-05-07T09:13:43;20.40;99.90
42615;DHT22;28754;47.700;7.924;2023-05-07T09:16:32;20.20;99.90
42615;DHT22;28754;47.700;7.924;2023-05-07T09:19:24;20.80;99.90
42615;DHT22;28754;47.700;7.924;2023-05-07T09:22:13;20.30;99.90
42615;DHT22;28754;47.700;7.924;2023-05-07T09:25:32;20.10;99.90
42615;DHT22;28754;47.700;7.924;2023-05-07T09:28:25;19.80;99.90
42615;DHT22;28754;47.700;7.924;2023-05-07T09:31:12;19.70;99.90
42615;DHT22;28754;47.700;7.924;2023-05-07T09:34:00;19.40;99.90
42615;DHT22;28754;47.700;7.924;2023-05-07T09:36:49;19.50;99.90
42615;DHT22;28754;47.700;7.924;2023-05-07T09:39:45;19.10;99.90
42615;DHT22;28754;47.700;7.924;2023-05-07T09:42:35;19.10;99.90
42615;DHT22;28754;47.700;7.924;2023-05-07T09:45:28;19.00;99.90
42615;DHT22;28754;47.700;7.924;2023-05-07T09:48:18;19.50;99.90
42615;DHT22;28754;47.700;7.924;2023-05-07T09:51:21;19.00;99.90
42615;DHT22;28754;47.700;7.924;2023-05-07T09:54:14;19.20;99.90
42615;DHT22;28754;47.700;7.924;2023-05-07T09:57:09;20.10;99.90
42615;DHT22;28754;47.700;7.924;2023-05-07T10:00:00;20.10;99.90
42615;DHT22;28754;47.700;7.924;2023-05-07T10:02:57;20.70;99.90
42615;DHT22;28754;47.700;7.924;2023-05-07T10:05:53;20.70;99.90
42615;DHT22;28754;47.700;7.924;2023-05-07T10:08:42;19.90;99.90
42615;DHT22;28754;47.700;7.924;2023-05-07T10:11:34;19.90;99.90
42615;DHT22;28754;47.700;7.924;2023-05-07T10:14:22;20.30;99.90
42615;DHT22;28754;47.700;7.924;2023-05-07T10:17:12;20.80;99.90
42615;DHT22;28754;47.700;7.924;2023-05-07T10:20:02;21.00;99.90
42615;DHT22;28754;47.700;7.924;2023-05-07T10:22:52;21.50;99.90
42615;DHT22;28754;47.700;7.924;2023-05-07T10:25:48;21.40;99.90
42615;DHT22;28754;47.700;7.924;2023-05-07T10:28:45;21.70;99.90
42615;DHT22;28754;47.700;7.924;2023-05-07T10:34:43;21.90;99.90
42615;DHT22;28754;47.700;7.924;2023-05-07T10:37:33;21.30;99.90
42615;DHT22;28754;47.700;7.924;2023-05-07T10:40:21;20.60;99.90
42615;DHT22;28754;47.700;7.924;2023-05-07T10:43:09;20.00;99.90
42615;DHT22;28754;47.700;7.924;2023-05-07T10:46:18;19.50;99.90
42615;DHT22;28754;47.700;7.924;2023-05-07T10:49:30;19.10;99.90
42615;DHT22;28754;47.700;7.924;2023-05-07T10:52:25;19.50;99.90
42615;DHT22;28754;47.700;7.924;2023-05-07T10:55:33;19.40;99.90
42615;DHT22;28754;47.700;7.924;2023-05-07T10:58:42;18.60;99.90
42615;DHT22;28754;47.700;7.924;2023-05-07T11:01:54;18.50;99.90
42615;DHT22;28754;47.700;7.924;2023-05-07T11:05:23;18.60;99.90
42615;DHT22;28754;47.700;7.924;2023-05-07T11:08:22;18.60;99.90
42615;DHT22;28754;47.700;7.924;2023-05-07T11:11:46;18.60;99.90
42615;DHT22;28754;47.700;7.924;2023-05-07T11:15:07;17.90;99.90
42615;DHT22;28754;47.700;7.924;2023-05-07T11:17:59;17.70;99.90
42615;DHT22;28754;47.700;7.924;2023-05-07T11:20:54;17.50;99.90
42615;DHT22;28754;47.700;7.924;2023-05-07T11:24:10;17.30;99.90
42615;DHT22;28754;47.700;7.924;2023-05-07T11:27:05;17.30;99.90
42615;DHT22;28754;47.700;7.924;2023-05-07T11:29:52;17.70;99.90
42615;DHT22;28754;47.700;7.924;2023-05-07T11:32:39;17.50;99.90
42615;DHT22;28754;47.700;7.924;2023-05-07T11:35:26;17.70;99.90
42615;DHT22;28754;47.700;7.924;2023-05-07T11:38:14;18.00;99.90
42615;DHT22;28754;47.700;7.924;2023-05-07T11:41:02;18.40;99.90
42615;DHT22;28754;47.700;7.924;2023-05-07T11:43:55;18.90;99.90
42615;DHT22;28754;47.700;7.924;2023-05-07T11:46:45;18.60;99.90
42615;DHT22;28754;47.700;7.924;2023-05-07T11:49:32;18.50;99.90
42615;DHT22;28754;47.700;7.924;2023-05-07T11:52:21;19.10;99.90
42615;DHT22;28754;47.700;7.924;2023-05-07T11:55:09;19.50;99.90
42615;DHT22;28754;47.700;7.924;2023-05-07T11:57:55;19.80;99.90
42615;DHT22;28754;47.700;7.924;2023-05-07T12:00:52;19.80;99.90
42615;DHT22;28754;47.700;7.924;2023-05-07T12:03:40;19.70;99.90
42615;DHT22;28754;47.700;7.924;2023-05-07T12:06:36;19.90;99.90
42615;DHT22;28754;47.700;7.924;2023-05-07T12:09:24;19.70;99.90
42615;DHT22;28754;47.700;7.924;2023-05-07T12:12:11;18.90;99.90
42615;DHT22;28754;47.700;7.924;2023-05-07T12:15:00;17.90;99.90
42615;DHT22;28754;47.700;7.924;2023-05-07T12:17:47;17.60;99.90
42615;DHT22;28754;47.700;7.924;2023-05-07T12:20:36;17.10;99.90
42615;DHT22;28754;47.700;7.924;2023-05-07T12:23:22;16.80;99.90
42615;DHT22;28754;47.700;7.924;2023-05-07T12:26:09;16.60;99.90
42615;DHT22;28754;47.700;7.924;2023-05-07T12:29:00;16.30;99.90
42615;DHT22;28754;47.700;7.924;2023-05-07T12:31:46;16.10;99.90
42615;DHT22;28754;47.700;7.924;2023-05-07T12:34:33;15.60;99.90
42615;DHT22;28754;47.700;7.924;2023-05-07T12:37:30;15.30;99.90
42615;DHT22;28754;47.700;7.924;2023-05-07T12:43:45;14.60;99.90
42615;DHT22;28754;47.700;7.924;2023-05-07T12:46:32;14.60;99.90
42615;DHT22;28754;47.700;7.924;2023-05-07T12:49:38;14.80;99.90
42615;DHT22;28754;47.700;7.924;2023-05-07T12:52:29;15.10;99.90
42615;DHT22;28754;47.700;7.924;2023-05-07T12:55:19;15.40;99.90
42615;DHT22;28754;47.700;7.924;2023-05-07T12:58:15;15.80;99.90
42615;DHT22;28754;47.700;7.924;2023-05-07T13:01:15;15.80;99.90
42615;DHT22;28754;47.700;7.924;2023-05-07T13:04:34;15.70;99.90
42615;DHT22;28754;47.700;7.924;2023-05-07T13:07:25;15.50;99.90
42615;DHT22;28754;47.700;7.924;2023-05-07T13:10:11;15.60;99.90
42615;DHT22;28754;47.700;7.924;2023-05-07T13:12:59;15.70;99.90
42615;DHT22;28754;47.700;7.924;2023-05-07T13:15:55;16.00;99.90
42615;DHT22;28754;47.700;7.924;2023-05-07T13:18:48;16.20;99.90
42615;DHT22;28754;47.700;7.924;2023-05-07T13:21:38;16.30;99.90
42615;DHT22;28754;47.700;7.924;2023-05-07T13:24:28;16.60;99.90
42615;DHT22;28754;47.700;7.924;2023-05-07T13:27:20;16.30;99.90
42615;DHT22;28754;47.700;7.924;2023-05-07T13:30:38;16.20;99.90
42615;DHT22;28754;47.700;7.924;2023-05-07T13:33:47;16.30;99.90
42615;DHT22;28754;47.700;7.924;2023-05-07T13:37:17;16.70;99.90
42615;DHT22;28754;47.700;7.924;2023-05-07T13:41:07;17.00;99.90
42615;DHT22;28754;47.700;7.924;2023-05-07T13:44:25;17.50;99.90
42615;DHT22;28754;47.700;7.924;2023-05-07T13:47:40;17.60;99.90
42615;DHT22;28754;47.700;7.924;2023-05-07T13:50:47;18.20;99.90
42615;DHT22;28754;47.700;7.924;2023-05-07T13:53:39;18.00;99.90
42615;DHT22;28754;47.700;7.924;2023-05-07T13:56:26;18.20;99.90
42615;DHT22;28754;47.700;7.924;2023-05-07T13:59:44;18.70;99.90
42615;DHT22;28754;47.700;7.924;2023-05-07T14:02:33;19.00;99.90
42615;DHT22;28754;47.700;7.924;2023-05-07T14:05:20;19.20;99.90
42615;DHT22;28754;47.700;7.924;2023-05-07T14:08:09;19.20;99.90
42615;DHT22;28754;47.700;7.924;2023-05-07T14:11:16;19.50;99.90
42615;DHT22;28754;47.700;7.924;2023-05-07T14:14:32;20.20;99.90
42615;DHT22;28754;47.700;7.924;2023-05-07T14:21:17;19.60;99.90
42615;DHT22;28754;47.700;7.924;2023-05-07T14:25:04;19.60;99.90
42615;DHT22;28754;47.700;7.924;2023-05-07T14:27:51;20.10;99.90
42615;DHT22;28754;47.700;7.924;2023-05-07T14:30:41;19.60;99.90
42615;DHT22;28754;47.700;7.924;2023-05-07T14:33:28;19.00;99.90
42615;DHT22;28754;47.700;7.924;2023-05-07T14:36:25;18.60;99.90
42615;DHT22;28754;47.700;7.924;2023-05-07T14:39:14;19.40;99.90
42615;DHT22;28754;47.700;7.924;2023-05-07T14:42:01;19.60;99.90
42615;DHT22;28754;47.700;7.924;2023-05-07T14:44:57;20.50;99.90
42615;DHT22;28754;47.700;7.924;2023-05-07T14:50:57;20.30;99.90
42615;DHT22;28754;47.700;7.924;2023-05-07T14:53:49;20.10;99.90
42615;DHT22;28754;47.700;7.924;2023-05-07T14:56:40;20.10;99.90
42615;DHT22;28754;47.700;7.924;2023-05-07T14:59:27;19.50;99.90
42615;DHT22;28754;47.700;7.924;2023-05-07T15:06:09;18.90;99.90
42615;DHT22;28754;47.700;7.924;2023-05-07T15:08:56;18.40;99.90
42615;DHT22;28754;47.700;7.924;2023-05-07T15:11:43;18.00;99.90
42615;DHT22;28754;47.700;7.924;2023-05-07T15:14:30;18.10;99.90
42615;DHT22;28754;47.700;7.924;2023-05-07T15:17:17;18.20;99.90
42615;DHT22;28754;47.700;7.924;2023-05-07T15:20:06;18.30;99.90
42615;DHT22;28754;47.700;7.924;2023-05-07T15:22:59;18.50;99.90
42615;DHT22;28754;47.700;7.924;2023-05-07T15:26:07;18.60;99.90
42615;DHT22;28754;47.700;7.924;2023-05-07T15:28:54;18.20;99.90
42615;DHT22;28754;47.700;7.924;2023-05-07T15:31:49;18.30;99.90
42615;DHT22;28754;47.700;7.924;2023-05-07T15:34:39;17.90;99.90
42615;DHT22;28754;47.700;7.924;2023-05-07T15:37:30;17.80;99.90
42615;DHT22;28754;47.700;7.924;2023-05-07T15:40:17;18.10;99.90
42615;DHT22;28754;47.700;7.924;2023-05-07T15:43:07;17.80;99.90
42615;DHT22;28754;47.700;7.924;2023-05-07T15:45:55;17.90;99.90
42615;DHT22;28754;47.700;7.924;2023-05-07T15:48:50;18.00;99.90
42615;DHT22;28754;47.700;7.924;2023-05-07T15:51:42;18.10;99.90
42615;DHT22;28754;47.700;7.924;2023-05-07T15:54:39;18.00;99.90
42615;DHT22;28754;47.700;7.924;2023-05-07T15:57:29;17.80;99.90
42615;DHT22;28754;47.700;7.924;2023-05-07T16:00:17;17.40;99.90
42615;DHT22;28754;47.700;7.924;2023-05-07T16:03:04;17.10;99.90
42615;DHT22;28754;47.700;7.924;2023-05-07T16:05:59;16.80;99.90
42615;DHT22;28754;47.700;7.924;2023-05-07T16:08:48;16.10;99.90
42615;DHT22;28754;47.700;7.924;2023-05-07T16:11:35;15.90;99.90
42615;DHT22;28754;47.700;7.924;2023-05-07T16:14:22;15.60;99.90
42615;DHT22;28754;47.700;7.924;2023-05-07T16:17:09;15.60;99.90
42615;DHT22;28754;47.700;7.924;2023-05-07T16:19:56;15.70;99.90
42615;DHT22;28754;47.700;7.924;2023-05-07T16:22:44;15.80;99.90
42615;DHT22;28754;47.700;7.924;2023-05-07T16:25:31;16.10;99.90
42615;DHT22;28754;47.700;7.924;2023-05-07T16:28:18;16.20;99.90
42615;DHT22;28754;47.700;7.924;2023-05-07T16:31:08;16.40;99.90
42615;DHT22;28754;47.700;7.924;2023-05-07T16:33:54;16.60;99.90
42615;DHT22;28754;47.700;7.924;2023-05-07T16:36:41;16.70;99.90
42615;DHT22;28754;47.700;7.924;2023-05-07T16:39:30;16.70;99.90
42615;DHT22;28754;47.700;7.924;2023-05-07T16:42:17;16.80;99.90
42615;DHT22;28754;47.700;7.924;2023-05-07T16:45:04;17.00;99.90
42615;DHT22;28754;47.700;7.924;2023-05-07T16:47:52;16.70;99.90
42615;DHT22;28754;47.700;7.924;2023-05-07T16:50:38;16.80;99.90
42615;DHT22;28754;47.700;7.924;2023-05-07T16:53:25;16.90;99.90
42615;DHT22;28754;47.700;7.924;2023-05-07T16:56:12;16.90;99.90
42615;DHT22;28754;47.700;7.924;2023-05-07T16:58:58;16.90;99.90
42615;DHT22;28754;47.700;7.924;2023-05-07T17:01:45;17.00;99.90
42615;DHT22;28754;47.700;7.924;2023-05-07T17:04:32;17.10;99.90
42615;DHT22;28754;47.700;7.924;2023-05-07T17:07:21;17.00;99.90
42615;DHT22;28754;47.700;7.924;2023-05-07T17:10:08;16.60;99.90
42615;DHT22;28754;47.700;7.924;2023-05-07T17:12:57;16.40;99.90
42615;DHT22;28754;47.700;7.924;2023-05-07T17:15:44;16.20;99.90
42615;DHT22;28754;47.700;7.924;2023-05-07T17:18:32;16.00;99.90
42615;DHT22;28754;47.700;7.924;2023-05-07T17:21:20;16.00;99.90
42615;DHT22;28754;47.700;7.924;2023-05-07T17:24:07;15.90;99.90
42615;DHT22;28754;47.700;7.924;2023-05-07T17:26:53;16.10;99.90
42615;DHT22;28754;47.700;7.924;2023-05-07T17:29:40;16.00;99.90
42615;DHT22;28754;47.700;7.924;2023-05-07T17:32:27;16.10;99.90
42615;DHT22;28754;47.700;7.924;2023-05-07T17:35:14;16.10;99.90
42615;DHT22;28754;47.700;7.924;2023-05-07T17:38:01;16.10;99.90
42615;DHT22;28754;47.700;7.924;2023-05-07T17:40:48;15.90;99.90
42615;DHT22;28754;47.700;7.924;2023-05-07T17:43:35;15.90;99.90
42615;DHT22;28754;47.700;7.924;2023-05-07T17:46:21;15.90;99.90
42615;DHT22;28754;47.700;7.924;2023-05-07T17:49:08;15.70;99.90
42615;DHT22;28754;47.700;7.924;2023-05-07T17:51:55;15.90;99.90
42615;DHT22;28754;47.700;7.924;2023-05-07T17:54:41;15.70;99.90
42615;DHT22;28754;47.700;7.924;2023-05-07T17:57:28;15.60;99.90
42615;DHT22;28754;47.700;7.924;2023-05-07T18:00:16;15.10;99.90
42615;DHT22;28754;47.700;7.924;2023-05-07T18:03:04;15.00;99.90
42615;DHT22;28754;47.700;7.924;2023-05-07T18:05:50;15.20;99.90
42615;DHT22;28754;47.700;7.924;2023-05-07T18:08:37;15.30;99.90
42615;DHT22;28754;47.700;7.924;2023-05-07T18:11:24;15.30;99.90
42615;DHT22;28754;47.700;7.924;2023-05-07T18:14:11;15.40;99.90
42615;DHT22;28754;47.700;7.924;2023-05-07T18:16:57;15.30;99.90
42615;DHT22;28754;47.700;7.924;2023-05-07T18:19:44;15.20;99.90
42615;DHT22;28754;47.700;7.924;2023-05-07T18:22:31;15.30;99.90
42615;DHT22;28754;47.700;7.924;2023-05-07T18:25:18;14.90;99.90
42615;DHT22;28754;47.700;7.924;2023-05-07T18:28:05;14.80;99.90